Terminal Aerodrome Forecast
Issued by NWS

Home | Current Version | Previous Version | Text Only | Print | Product List | Glossary On
Versions: 1 2 3 4 5 6 7 8 9 10 11 12 13 14 15
776
FTUS46 KMFR 270520
TAFRBG
TAF
KRBG 270520Z 2706/2806 36004KT P6SM SCT040
     FM271100 36003KT P6SM SCT012
     FM272000 36010G18KT P6SM SKC
     FM280300 36007KT P6SM SKC=

USA.gov is the U.S. government's official web portal to all federal, state and local government web resources and services.